createdAt,value
2023-02-22T00:00:59.935Z,1.05
2023-02-22T00:03:32.485Z,1.30
2023-02-22T00:06:05.272Z,1.33
2023-02-22T00:08:37.546Z,1.13
2023-02-22T00:11:10.708Z,0.68
2023-02-22T00:13:38.901Z,1.73
2023-02-22T00:16:06.983Z,1.17
2023-02-22T00:18:34.223Z,1.17
2023-02-22T00:21:01.951Z,0.90
2023-02-22T00:23:32.073Z,1.13
2023-02-22T00:26:00.496Z,1.00
2023-02-22T00:28:28.088Z,1.08
2023-02-22T00:30:55.589Z,0.88
2023-02-22T00:33:23.017Z,1.35
2023-02-22T00:35:50.362Z,0.80
2023-02-22T00:38:19.365Z,0.80
2023-02-22T00:40:46.982Z,0.80
2023-02-22T00:43:14.246Z,0.98
2023-02-22T00:45:42.245Z,1.00
2023-02-22T00:48:09.995Z,0.80
2023-02-22T00:50:37.678Z,1.00
2023-02-22T00:53:06.119Z,1.02
2023-02-22T00:55:36.191Z,0.80
2023-02-22T00:58:05.358Z,1.30
2023-02-22T01:00:39.625Z,0.98
2023-02-22T01:03:08.727Z,0.68
2023-02-22T01:05:38.341Z,1.20
2023-02-22T01:08:07.914Z,0.50
2023-02-22T01:10:36.521Z,0.60
2023-02-22T01:13:09.283Z,0.90
2023-02-22T01:15:39.066Z,1.10
2023-02-22T01:18:07.087Z,0.80
2023-02-22T01:20:34.494Z,1.00
2023-02-22T01:23:03.908Z,1.00
2023-02-22T01:25:32.398Z,0.90
2023-02-22T01:28:01.383Z,1.10
2023-02-22T01:30:32.987Z,0.82
2023-02-22T01:33:02.377Z,0.85
2023-02-22T01:35:33.918Z,1.10
2023-02-22T01:38:01.160Z,1.63
2023-02-22T01:40:34.607Z,1.00
2023-02-22T01:43:06.719Z,1.40
2023-02-22T01:45:34.009Z,1.13
2023-02-22T01:48:19.868Z,1.55
2023-02-22T01:51:16.350Z,1.63
2023-02-22T01:53:52.215Z,1.23
2023-02-22T01:56:21.204Z,1.00
2023-02-22T01:58:56.945Z,0.85
2023-02-22T02:01:26.087Z,1.42
2023-02-22T02:03:58.360Z,0.80
2023-02-22T02:06:28.105Z,0.90
2023-02-22T02:09:14.218Z,0.75
2023-02-22T02:11:42.571Z,1.05
2023-02-22T02:14:11.253Z,1.30
2023-02-22T02:16:42.001Z,1.08
2023-02-22T02:19:53.938Z,1.50
2023-02-22T02:22:49.326Z,0.95
2023-02-22T02:28:24.117Z,0.77
2023-02-22T02:31:06.303Z,0.70
2023-02-22T02:33:41.802Z,1.08
2023-02-22T02:36:20.937Z,0.95
2023-02-22T02:38:56.653Z,1.00
2023-02-22T02:41:49.432Z,1.25
2023-02-22T02:44:37.997Z,0.90
2023-02-22T02:47:08.121Z,1.30
2023-02-22T02:49:51.817Z,0.73
2023-02-22T02:52:21.698Z,1.30
2023-02-22T02:54:50.791Z,1.27
2023-02-22T02:57:17.911Z,0.98
2023-02-22T02:59:46.499Z,1.00
2023-02-22T03:02:49.348Z,0.98
2023-02-22T03:05:47.921Z,2.40
2023-02-22T03:08:27.482Z,1.13
2023-02-22T03:11:15.435Z,0.80
2023-02-22T03:13:48.656Z,0.88
2023-02-22T03:16:45.365Z,1.13
2023-02-22T03:19:27.903Z,0.95
2023-02-22T03:22:05.673Z,0.77
2023-02-22T03:24:43.237Z,0.90
2023-02-22T03:27:17.934Z,1.00
2023-02-22T03:29:46.044Z,1.13
2023-02-22T03:32:18.023Z,1.42
2023-02-22T03:34:56.868Z,1.25
2023-02-22T03:37:30.093Z,1.25
2023-02-22T03:40:00.434Z,1.08
2023-02-22T03:42:37.801Z,1.40
2023-02-22T03:45:10.148Z,1.40
2023-02-22T03:48:06.949Z,1.65
2023-02-22T03:50:37.039Z,1.17
2023-02-22T03:53:05.401Z,1.45
2023-02-22T03:55:33.155Z,1.40
2023-02-22T03:58:04.991Z,0.98
2023-02-22T04:00:34.227Z,1.38
2023-02-22T04:03:02.543Z,1.45
2023-02-22T04:05:29.611Z,1.30
2023-02-22T04:07:57.788Z,1.20
2023-02-22T04:10:25.443Z,1.23
2023-02-22T04:12:52.849Z,0.95
2023-02-22T04:15:23.391Z,1.40
2023-02-22T04:17:52.645Z,1.23
2023-02-22T04:20:20.151Z,1.50
2023-02-22T04:22:47.644Z,1.38
2023-02-22T04:25:15.498Z,1.10
2023-02-22T04:27:44.136Z,1.95
2023-02-22T04:30:13.124Z,3.15
2023-02-22T04:32:40.828Z,3.10
2023-02-22T04:35:08.407Z,2.00
2023-02-22T04:37:35.952Z,1.52
2023-02-22T04:40:08.778Z,2.03
2023-02-22T04:42:37.654Z,2.25
2023-02-22T04:45:08.090Z,2.83
2023-02-22T04:47:36.431Z,2.08
2023-02-22T04:50:09.325Z,1.83
2023-02-22T04:52:36.797Z,1.10
2023-02-22T04:55:04.979Z,1.33
2023-02-22T04:57:32.478Z,1.75
2023-02-22T04:59:59.737Z,1.60
2023-02-22T05:02:32.418Z,1.65
2023-02-22T05:04:59.532Z,1.90
2023-02-22T05:07:54.884Z,1.95
2023-02-22T05:10:21.898Z,2.05
2023-02-22T05:12:50.217Z,1.35
2023-02-22T05:15:19.905Z,2.40
2023-02-22T05:17:48.928Z,1.63
2023-02-22T05:20:22.449Z,1.80
2023-02-22T05:22:52.046Z,2.65
2023-02-22T05:25:20.985Z,2.20
2023-02-22T05:30:35.746Z,2.72
2023-02-22T05:33:03.295Z,1.70
2023-02-22T05:35:33.826Z,1.60
2023-02-22T05:38:03.261Z,2.08
2023-02-22T05:40:31.465Z,1.75
2023-02-22T05:42:59.824Z,2.88
2023-02-22T05:45:28.004Z,3.47
2023-02-22T05:47:56.370Z,2.03
2023-02-22T05:50:24.941Z,2.78
2023-02-22T05:55:46.620Z,2.15
2023-02-22T05:58:15.211Z,2.33
2023-02-22T06:00:42.432Z,2.72
2023-02-22T06:03:11.118Z,2.40
2023-02-22T06:05:39.122Z,3.10
2023-02-22T06:08:31.614Z,2.08
2023-02-22T06:10:58.888Z,2.22
2023-02-22T06:13:26.328Z,1.88
2023-02-22T06:15:53.409Z,2.15
2023-02-22T06:18:21.321Z,2.10
2023-02-22T06:20:48.411Z,1.88
2023-02-22T06:23:16.199Z,2.85
2023-02-22T06:25:46.334Z,2.28
2023-02-22T06:28:18.319Z,2.85
2023-02-22T06:30:46.256Z,3.95
2023-02-22T06:33:13.971Z,7.10
2023-02-22T06:35:41.069Z,4.00
2023-02-22T06:38:08.842Z,3.40
2023-02-22T06:40:37.204Z,3.75
2023-02-22T06:43:04.555Z,2.67
2023-02-22T06:45:31.770Z,2.10
2023-02-22T06:48:01.631Z,2.08
2023-02-22T06:50:31.419Z,1.85
2023-02-22T06:53:00.021Z,3.25
2023-02-22T06:55:29.534Z,1.83
2023-02-22T06:57:56.988Z,2.53
2023-02-22T07:00:26.125Z,2.55
2023-02-22T07:02:54.305Z,3.35
2023-02-22T07:05:23.029Z,3.00
2023-02-22T07:07:52.760Z,2.90
2023-02-22T07:10:29.417Z,4.10
2023-02-22T07:12:57.165Z,2.65
2023-02-22T07:15:26.061Z,3.47
2023-02-22T07:17:56.060Z,2.50
2023-02-22T07:20:25.073Z,13.70
2023-02-22T07:22:56.554Z,9.40
2023-02-22T07:25:24.666Z,3.22
2023-02-22T07:27:54.947Z,2.20
2023-02-22T07:30:25.959Z,3.35
2023-02-22T07:32:55.233Z,2.33
2023-02-22T07:35:36.736Z,2.53
2023-02-22T07:38:09.885Z,1.80
2023-02-22T07:40:40.375Z,2.17
2023-02-22T07:43:21.195Z,2.40
2023-02-22T07:45:51.118Z,2.72
2023-02-22T07:48:23.073Z,2.55
2023-02-22T07:50:50.401Z,1.95
2023-02-22T07:53:28.657Z,2.50
2023-02-22T07:56:05.676Z,2.13
2023-02-22T07:58:33.142Z,2.30
2023-02-22T08:01:04.574Z,2.00
2023-02-22T08:03:38.538Z,2.20
2023-02-22T08:06:07.737Z,1.67
2023-02-22T08:08:35.416Z,2.67
2023-02-22T08:11:06.740Z,2.25
2023-02-22T08:13:37.275Z,2.65
2023-02-22T08:16:04.617Z,1.98
2023-02-22T08:18:33.171Z,2.33
2023-02-22T08:21:00.309Z,2.10
2023-02-22T08:23:27.653Z,2.28
2023-02-22T08:25:55.023Z,2.45
2023-02-22T08:28:24.642Z,2.78
2023-02-22T08:30:52.604Z,2.10
2023-02-22T08:33:20.873Z,1.63
2023-02-22T08:35:49.846Z,2.15
2023-02-22T08:38:40.500Z,1.55
2023-02-22T08:41:10.040Z,2.20
2023-02-22T08:46:11.522Z,2.20
2023-02-22T08:48:50.607Z,1.80
2023-02-22T08:51:20.125Z,1.52
2023-02-22T08:53:47.590Z,1.65
2023-02-22T08:56:14.843Z,1.58
2023-02-22T08:58:42.227Z,3.28
2023-02-22T09:01:09.482Z,1.35
2023-02-22T09:03:36.884Z,1.95
2023-02-22T09:06:05.305Z,1.35
2023-02-22T09:08:32.803Z,2.40
2023-02-22T09:10:59.886Z,2.72
2023-02-22T09:13:29.396Z,2.08
2023-02-22T09:15:56.420Z,1.60
2023-02-22T09:18:25.579Z,1.52
2023-02-22T09:20:54.878Z,2.60
2023-02-22T09:23:22.428Z,1.70
2023-02-22T09:25:49.738Z,2.20
2023-02-22T09:28:17.214Z,2.90
2023-02-22T09:30:44.654Z,2.15
2023-02-22T09:33:15.677Z,2.25
2023-02-22T09:35:46.604Z,1.75
2023-02-22T09:38:26.107Z,2.30
2023-02-22T09:41:04.687Z,2.42
2023-02-22T09:44:00.189Z,1.75
2023-02-22T09:46:48.142Z,2.03
2023-02-22T09:49:19.503Z,1.70
2023-02-22T09:52:05.613Z,1.35
2023-02-22T09:54:52.862Z,1.40
2023-02-22T09:57:32.182Z,1.98
2023-02-22T10:00:13.750Z,1.48
2023-02-22T10:02:53.437Z,1.80
2023-02-22T10:05:38.079Z,2.42
2023-02-22T10:08:10.822Z,1.98
2023-02-22T10:11:02.215Z,2.58
2023-02-22T10:13:39.446Z,2.75
2023-02-22T10:16:20.585Z,2.58
2023-02-22T10:19:10.944Z,1.75
2023-02-22T10:21:50.208Z,1.38
2023-02-22T10:24:20.587Z,1.38
2023-02-22T10:26:48.792Z,1.38
2023-02-22T10:29:31.029Z,0.90
2023-02-22T10:32:02.153Z,0.85
2023-02-22T10:34:39.791Z,0.60
2023-02-22T10:37:24.202Z,0.85
2023-02-22T10:39:56.363Z,1.00
2023-02-22T10:42:27.474Z,0.60
2023-02-22T10:44:54.863Z,1.65
2023-02-22T10:47:26.074Z,1.20
2023-02-22T10:49:58.890Z,1.40
2023-02-22T10:52:34.866Z,1.40
2023-02-22T10:55:14.952Z,1.10
2023-02-22T10:57:47.984Z,0.70
2023-02-22T11:00:37.437Z,0.70
2023-02-22T11:03:22.294Z,0.77
2023-02-22T11:05:51.062Z,0.70
2023-02-22T11:08:22.059Z,0.90
2023-02-22T11:10:50.969Z,1.08
2023-02-22T11:13:32.733Z,1.05
2023-02-22T11:16:27.135Z,1.08
2023-02-22T11:21:32.736Z,1.42
2023-02-22T11:24:10.594Z,1.00
2023-02-22T11:26:51.985Z,1.42
2023-02-22T11:29:34.404Z,0.88
2023-02-22T11:32:13.554Z,1.02
2023-02-22T11:34:45.429Z,0.70
2023-02-22T11:37:31.890Z,1.10
2023-02-22T11:40:15.521Z,0.63
2023-02-22T11:42:44.988Z,1.05
2023-02-22T11:45:22.870Z,1.40
2023-02-22T11:47:56.265Z,0.82
2023-02-22T11:50:33.498Z,0.80
2023-02-22T11:53:25.813Z,0.63
2023-02-22T11:56:14.097Z,0.70
2023-02-22T11:58:45.807Z,1.63
2023-02-22T12:06:02.150Z,0.70
2023-02-22T12:08:57.059Z,1.00
2023-02-22T12:12:04.320Z,0.80
2023-02-22T12:15:06.656Z,1.10
2023-02-22T12:17:43.644Z,1.20
2023-02-22T12:20:25.049Z,0.85
2023-02-22T12:23:02.171Z,1.00
2023-02-22T12:25:35.792Z,0.75
2023-02-22T12:28:24.796Z,1.02
2023-02-22T12:31:30.673Z,0.80
2023-02-22T12:34:31.183Z,0.90
2023-02-22T12:37:32.958Z,1.50
2023-02-22T12:40:30.996Z,1.33
2023-02-22T12:43:30.751Z,0.90
2023-02-22T12:46:19.595Z,1.20
2023-02-22T12:49:08.499Z,1.27
2023-02-22T12:51:57.777Z,2.08
2023-02-22T12:58:52.265Z,0.82
2023-02-22T13:01:30.719Z,1.20
2023-02-22T13:04:20.488Z,1.40
2023-02-22T13:06:56.194Z,1.10
2023-02-22T13:09:56.962Z,2.65
2023-02-22T13:12:52.624Z,1.58
2023-02-22T13:15:22.604Z,0.98
2023-02-22T13:18:21.533Z,1.10
2023-02-22T13:21:07.100Z,0.73
2023-02-22T13:23:47.307Z,1.00
2023-02-22T13:26:47.045Z,0.95
2023-02-22T13:29:27.121Z,0.98
2023-02-22T13:35:15.579Z,1.02
2023-02-22T13:38:16.150Z,0.95
2023-02-22T13:41:32.714Z,1.23
2023-02-22T13:44:25.743Z,1.20
2023-02-22T13:47:11.599Z,1.40
2023-02-22T13:50:10.965Z,1.83
2023-02-22T13:52:41.088Z,1.35
2023-02-22T13:55:21.021Z,1.00
2023-02-22T13:58:17.310Z,0.93
2023-02-22T14:01:03.023Z,1.08
2023-02-22T14:03:36.731Z,1.10
2023-02-22T14:06:53.620Z,1.67
2023-02-22T14:09:47.162Z,1.20
2023-02-22T14:12:30.095Z,1.30
2023-02-22T14:15:28.744Z,0.80
2023-02-22T14:18:03.938Z,1.63
2023-02-22T14:20:59.494Z,1.42
2023-02-22T14:23:37.866Z,1.50
2023-02-22T14:26:20.380Z,1.40
2023-02-22T14:29:24.977Z,0.85
2023-02-22T14:32:01.100Z,1.30
2023-02-22T14:34:58.384Z,1.60
2023-02-22T14:37:37.549Z,0.70
2023-02-22T14:40:34.205Z,1.90
2023-02-22T14:43:15.996Z,1.60
2023-02-22T14:45:53.676Z,0.80
2023-02-22T14:48:39.700Z,1.25
2023-02-22T14:51:25.113Z,0.98
2023-02-22T14:54:09.047Z,2.13
2023-02-22T14:56:49.288Z,1.67
2023-02-22T14:59:26.509Z,2.17
2023-02-22T15:02:12.260Z,1.17
2023-02-22T15:04:50.218Z,1.65
2023-02-22T15:07:30.040Z,1.88
2023-02-22T15:10:28.431Z,2.30
2023-02-22T15:13:09.832Z,2.10
2023-02-22T15:15:46.965Z,2.22
2023-02-22T15:18:30.263Z,1.65
2023-02-22T15:21:13.322Z,1.90
2023-02-22T15:23:41.970Z,1.15
2023-02-22T15:27:00.657Z,1.20
2023-02-22T15:29:57.006Z,2.00
2023-02-22T15:32:27.552Z,1.88
2023-02-22T15:34:56.642Z,2.25
2023-02-22T15:37:28.200Z,1.73
2023-02-22T15:40:07.829Z,4.07
2023-02-22T15:42:50.476Z,3.53
2023-02-22T15:45:26.371Z,1.70
2023-02-22T15:47:58.839Z,1.90
2023-02-22T15:50:34.852Z,2.67
2023-02-22T15:53:21.121Z,3.20
2023-02-22T15:55:54.928Z,3.25
2023-02-22T15:58:29.063Z,3.42
2023-02-22T16:01:05.914Z,2.65
2023-02-22T16:03:54.440Z,2.58
2023-02-22T16:06:25.117Z,2.80
2023-02-22T16:08:55.967Z,2.00
2023-02-22T16:11:31.814Z,2.45
2023-02-22T16:14:17.580Z,2.67
2023-02-22T16:17:37.794Z,2.70
2023-02-22T16:20:11.692Z,1.17
2023-02-22T16:22:50.781Z,1.60
2023-02-22T16:25:22.563Z,2.35
2023-02-22T16:28:03.289Z,2.47
2023-02-22T16:30:38.477Z,2.22
2023-02-22T16:33:13.893Z,3.13
2023-02-22T16:35:52.746Z,2.58
2023-02-22T16:38:24.707Z,2.67
2023-02-22T16:40:55.557Z,2.60
2023-02-22T16:43:25.410Z,2.75
2023-02-22T16:45:55.580Z,1.75
2023-02-22T16:48:25.246Z,1.85
2023-02-22T16:50:55.590Z,2.63
2023-02-22T16:53:26.455Z,3.10
2023-02-22T16:55:58.215Z,4.22
2023-02-22T16:58:28.046Z,4.65
2023-02-22T17:00:57.593Z,4.57
2023-02-22T17:03:28.241Z,2.80
2023-02-22T17:05:58.023Z,3.75
2023-02-22T17:08:26.612Z,3.70
2023-02-22T17:11:04.331Z,2.25
2023-02-22T17:13:34.955Z,1.45
2023-02-22T17:16:02.350Z,3.75
2023-02-22T17:18:34.070Z,3.28
2023-02-22T17:21:05.576Z,2.78
2023-02-22T17:23:33.712Z,3.58
2023-02-22T17:26:02.485Z,4.15
2023-02-22T17:28:30.920Z,3.22
2023-02-22T17:31:03.848Z,3.80
2023-02-22T17:33:40.434Z,3.72
2023-02-22T17:36:08.510Z,2.78
2023-02-22T17:38:36.798Z,3.80
2023-02-22T17:43:49.586Z,5.30
2023-02-22T17:46:21.834Z,5.47
2023-02-22T17:48:49.846Z,2.97
2023-02-22T17:51:18.312Z,3.42
2023-02-22T17:53:45.411Z,2.13
2023-02-22T17:56:19.491Z,3.53
2023-02-22T17:58:53.585Z,4.03
2023-02-22T18:01:32.136Z,3.67
2023-02-22T18:04:02.754Z,4.07
2023-02-22T18:06:33.244Z,3.22
2023-02-22T18:09:01.733Z,4.18
2023-02-22T18:11:37.044Z,1.92
2023-02-22T18:14:10.057Z,3.15
2023-02-22T18:16:39.804Z,3.20
2023-02-22T18:19:08.114Z,4.60
2023-02-22T18:21:36.513Z,2.03
2023-02-22T18:24:04.304Z,4.03
2023-02-22T18:26:32.476Z,3.78
2023-02-22T18:29:01.204Z,1.95
2023-02-22T18:31:35.414Z,1.88
2023-02-22T18:34:03.262Z,3.00
2023-02-22T18:36:30.879Z,3.90
2023-02-22T18:38:58.158Z,3.20
2023-02-22T18:41:26.057Z,3.10
2023-02-22T18:43:55.699Z,3.15
2023-02-22T18:46:32.886Z,4.50
2023-02-22T18:49:03.275Z,3.72
2023-02-22T18:51:31.122Z,2.08
2023-02-22T18:54:02.529Z,2.28
2023-02-22T18:56:31.531Z,4.13
2023-02-22T18:59:02.515Z,3.97
2023-02-22T19:01:31.996Z,4.20
2023-02-22T19:04:07.596Z,3.42
2023-02-22T19:06:37.004Z,1.88
2023-02-22T19:09:08.588Z,4.68
2023-02-22T19:12:03.754Z,3.10
2023-02-22T19:14:33.454Z,4.45
2023-02-22T19:17:07.602Z,2.88
2023-02-22T19:19:35.200Z,3.38
2023-02-22T19:22:05.049Z,4.55
2023-02-22T19:24:33.239Z,3.00
2023-02-22T19:27:00.876Z,3.50
2023-02-22T19:29:31.353Z,4.30
2023-02-22T19:32:00.973Z,2.58
2023-02-22T19:34:28.200Z,3.35
2023-02-22T19:36:56.167Z,3.78
2023-02-22T19:39:24.256Z,3.25
2023-02-22T19:41:52.592Z,1.70
2023-02-22T19:44:19.708Z,2.15
2023-02-22T19:46:47.690Z,1.88
2023-02-22T19:49:15.833Z,3.22
2023-02-22T19:51:43.365Z,3.15
2023-02-22T19:54:17.523Z,3.15
2023-02-22T19:56:45.177Z,2.45
2023-02-22T19:59:17.166Z,1.58
2023-02-22T20:01:45.618Z,2.83
2023-02-22T20:04:18.398Z,3.55
2023-02-22T20:06:54.029Z,2.83
2023-02-22T20:09:43.346Z,3.45
2023-02-22T20:12:10.858Z,2.08
2023-02-22T20:14:40.442Z,2.20
2023-02-22T20:17:09.056Z,2.13
2023-02-22T20:19:37.739Z,1.88
2023-02-22T20:22:05.337Z,3.60
2023-02-22T20:24:32.636Z,3.08
2023-02-22T20:27:00.128Z,3.47
2023-02-22T20:29:29.997Z,2.83
2023-02-22T20:32:02.158Z,3.80
2023-02-22T20:34:35.164Z,3.35
2023-02-22T20:37:17.795Z,3.35
2023-02-22T20:39:45.283Z,2.80
2023-02-22T20:42:12.453Z,3.28
2023-02-22T20:44:39.850Z,3.47
2023-02-22T20:47:09.119Z,3.53
2023-02-22T20:49:37.509Z,3.35
2023-02-22T20:52:04.856Z,3.47
2023-02-22T20:54:39.111Z,3.15
2023-02-22T20:57:08.231Z,3.08
2023-02-22T20:59:36.185Z,3.00
2023-02-22T21:02:03.366Z,3.67
2023-02-22T21:04:35.349Z,3.25
2023-02-22T21:07:03.584Z,2.72
2023-02-22T21:09:32.597Z,3.10
2023-02-22T21:11:59.748Z,3.97
2023-02-22T21:14:27.078Z,3.75
2023-02-22T21:16:54.306Z,3.88
2023-02-22T21:19:28.255Z,3.83
2023-02-22T21:21:58.302Z,6.53
2023-02-22T21:24:27.538Z,3.15
2023-02-22T21:26:58.793Z,4.20
2023-02-22T21:29:29.877Z,3.33
2023-02-22T21:32:06.430Z,2.53
2023-02-22T21:34:34.570Z,2.95
2023-02-22T21:37:01.839Z,1.55
2023-02-22T21:39:29.380Z,3.13
2023-02-22T21:42:00.751Z,2.35
2023-02-22T21:44:28.989Z,2.58
2023-02-22T21:46:56.171Z,2.20
2023-02-22T21:49:23.824Z,2.70
2023-02-22T21:51:52.706Z,2.28
2023-02-22T21:56:48.061Z,2.03
2023-02-22T21:59:20.604Z,1.35
2023-02-22T22:01:56.074Z,1.63
2023-02-22T22:04:27.732Z,1.85
2023-02-22T22:06:57.549Z,2.28
2023-02-22T22:09:32.547Z,1.77
2023-02-22T22:12:03.094Z,2.45
2023-02-22T22:14:33.794Z,2.33
2023-02-22T22:17:01.218Z,3.20
2023-02-22T22:19:30.301Z,2.65
2023-02-22T22:21:58.373Z,3.03
2023-02-22T22:24:28.657Z,3.30
2023-02-22T22:26:56.261Z,2.70
2023-02-22T22:29:26.706Z,2.60
2023-02-22T22:31:53.741Z,2.35
2023-02-22T22:34:24.436Z,4.55
2023-02-22T22:36:51.618Z,2.60
2023-02-22T22:39:21.200Z,2.35
2023-02-22T22:44:22.275Z,2.10
2023-02-22T22:46:53.819Z,2.33
2023-02-22T22:49:23.480Z,2.20
2023-02-22T22:51:51.428Z,2.38
2023-02-22T22:54:18.772Z,2.20
2023-02-22T22:56:50.920Z,2.20
2023-02-22T22:59:18.836Z,2.22
2023-02-22T23:01:45.784Z,1.92
2023-02-22T23:04:18.918Z,1.73
2023-02-22T23:06:50.035Z,1.90
2023-02-22T23:09:21.829Z,1.48
2023-02-22T23:11:55.292Z,1.70
2023-02-22T23:14:25.255Z,2.22
2023-02-22T23:19:20.813Z,1.70
2023-02-22T23:21:49.456Z,1.70
2023-02-22T23:24:19.419Z,2.20
2023-02-22T23:26:48.791Z,2.42
2023-02-22T23:29:19.241Z,2.33
2023-02-22T23:31:48.936Z,2.17
2023-02-22T23:34:21.519Z,2.30
2023-02-22T23:36:49.294Z,2.13
2023-02-22T23:39:22.641Z,3.10
2023-02-22T23:41:51.355Z,2.15
2023-02-22T23:44:19.916Z,2.70
2023-02-22T23:46:48.878Z,2.15
2023-02-22T23:49:20.789Z,2.38
2023-02-22T23:51:48.802Z,2.33
2023-02-22T23:54:21.512Z,2.65
2023-02-22T23:56:58.187Z,2.40
2023-02-22T23:59:27.088Z,2.08
